sensor_id;sensor_type;location;lat;lon;timestamp;pressure;altitude;pressure_sealevel;temperature;humidity
12763;BME280;6445;52.490;13.378;2023-03-19T00:01:03;52866.28;;;-146.10;100.00
12763;BME280;6445;52.490;13.378;2023-03-19T00:03:28;52324.06;;;-146.10;100.00
12763;BME280;6445;52.490;13.378;2023-03-19T00:05:54;52220.03;;;-146.10;100.00
12763;BME280;6445;52.490;13.378;2023-03-19T00:08:19;52198.03;;;-146.10;99.27
12763;BME280;6445;52.490;13.378;2023-03-19T00:10:45;52146.00;;;-146.10;96.99
12763;BME280;6445;52.490;13.378;2023-03-19T00:13:10;52194.03;;;-146.10;97.22
12763;BME280;6445;52.490;13.378;2023-03-19T00:15:36;52720.22;;;-146.10;100.00
12763;BME280;6445;52.490;13.378;2023-03-19T00:18:01;52804.25;;;-146.10;100.00
12763;BME280;6445;52.490;13.378;2023-03-19T00:20:26;53172.44;;;-146.10;100.00
12763;BME280;6445;52.490;13.378;2023-03-19T00:22:51;52886.28;;;-146.10;100.00
12763;BME280;6445;52.490;13.378;2023-03-19T00:25:17;52844.25;;;-146.10;100.00
12763;BME280;6445;52.490;13.378;2023-03-19T00:27:42;53184.44;;;-146.10;100.00
12763;BME280;6445;52.490;13.378;2023-03-19T00:30:08;53182.44;;;-146.10;100.00
12763;BME280;6445;52.490;13.378;2023-03-19T00:32:35;53138.41;;;-146.10;100.00
12763;BME280;6445;52.490;13.378;2023-03-19T00:35:01;53232.47;;;-146.10;100.00
12763;BME280;6445;52.490;13.378;2023-03-19T00:37:26;53324.50;;;-146.10;100.00
12763;BME280;6445;52.490;13.378;2023-03-19T00:39:51;52790.25;;;-146.10;100.00
12763;BME280;6445;52.490;13.378;2023-03-19T00:42:17;52916.31;;;-146.10;100.00
12763;BME280;6445;52.490;13.378;2023-03-19T00:44:42;53158.44;;;-146.10;100.00
12763;BME280;6445;52.490;13.378;2023-03-19T00:47:07;53362.53;;;-146.10;100.00
12763;BME280;6445;52.490;13.378;2023-03-19T00:49:32;53162.44;;;-146.10;100.00
12763;BME280;6445;52.490;13.378;2023-03-19T00:51:58;52714.22;;;-146.10;99.76
12763;BME280;6445;52.490;13.378;2023-03-19T00:54:23;52908.28;;;-146.10;100.00
12763;BME280;6445;52.490;13.378;2023-03-19T00:56:48;53314.50;;;-146.10;100.00
12763;BME280;6445;52.490;13.378;2023-03-19T00:59:13;53416.56;;;-146.10;100.00
12763;BME280;6445;52.490;13.378;2023-03-19T01:01:39;53620.69;;;-146.10;100.00
12763;BME280;6445;52.490;13.378;2023-03-19T01:04:04;53062.38;;;-146.10;100.00
12763;BME280;6445;52.490;13.378;2023-03-19T01:06:29;53050.38;;;-146.10;100.00
12763;BME280;6445;52.490;13.378;2023-03-19T01:08:55;53448.59;;;-146.10;100.00
12763;BME280;6445;52.490;13.378;2023-03-19T01:11:20;53326.53;;;-146.10;100.00
12763;BME280;6445;52.490;13.378;2023-03-19T01:13:45;53330.53;;;-146.10;100.00
12763;BME280;6445;52.490;13.378;2023-03-19T01:16:12;53400.56;;;-146.10;100.00
12763;BME280;6445;52.490;13.378;2023-03-19T01:18:37;53804.81;;;-146.10;100.00
12763;BME280;6445;52.490;13.378;2023-03-19T01:21:03;53076.38;;;-146.10;100.00
12763;BME280;6445;52.490;13.378;2023-03-19T01:23:29;52972.31;;;-146.10;100.00
12763;BME280;6445;52.490;13.378;2023-03-19T01:25:55;53836.84;;;-146.10;100.00
12763;BME280;6445;52.490;13.378;2023-03-19T01:28:21;53744.78;;;-146.10;100.00
12763;BME280;6445;52.490;13.378;2023-03-19T01:30:46;53854.84;;;-146.10;100.00
12763;BME280;6445;52.490;13.378;2023-03-19T01:33:12;53834.84;;;-146.10;100.00
12763;BME280;6445;52.490;13.378;2023-03-19T01:35:37;53298.50;;;-146.10;100.00
12763;BME280;6445;52.490;13.378;2023-03-19T01:38:03;53566.66;;;-146.10;100.00
12763;BME280;6445;52.490;13.378;2023-03-19T01:40:28;53646.72;;;-146.10;100.00
12763;BME280;6445;52.490;13.378;2023-03-19T01:43:20;53882.88;;;-146.10;100.00
12763;BME280;6445;52.490;13.378;2023-03-19T01:45:47;53450.59;;;-146.10;100.00
12763;BME280;6445;52.490;13.378;2023-03-19T01:48:24;53872.88;;;-146.10;100.00
12763;BME280;6445;52.490;13.378;2023-03-19T01:50:52;53252.47;;;-146.10;100.00
12763;BME280;6445;52.490;13.378;2023-03-19T01:53:22;53094.38;;;-146.10;100.00
12763;BME280;6445;52.490;13.378;2023-03-19T01:55:48;53132.41;;;-146.10;100.00
12763;BME280;6445;52.490;13.378;2023-03-19T01:58:14;53248.47;;;-146.10;100.00
12763;BME280;6445;52.490;13.378;2023-03-19T02:00:40;53726.78;;;-146.10;100.00
12763;BME280;6445;52.490;13.378;2023-03-19T02:03:06;54607.47;;;-146.10;100.00
12763;BME280;6445;52.490;13.378;2023-03-19T02:05:32;54179.09;;;-146.10;100.00
12763;BME280;6445;52.490;13.378;2023-03-19T02:08:00;54503.38;;;-146.10;100.00
12763;BME280;6445;52.490;13.378;2023-03-19T02:10:28;54313.22;;;-146.10;100.00
12763;BME280;6445;52.490;13.378;2023-03-19T02:12:53;54175.09;;;-146.10;100.00
12763;BME280;6445;52.490;13.378;2023-03-19T02:15:19;53548.66;;;-146.10;100.00
12763;BME280;6445;52.490;13.378;2023-03-19T02:17:45;53116.41;;;-146.10;99.76
12763;BME280;6445;52.490;13.378;2023-03-19T02:20:28;53238.47;;;-146.10;100.00
12763;BME280;6445;52.490;13.378;2023-03-19T02:23:06;53486.63;;;-146.10;100.00
12763;BME280;6445;52.490;13.378;2023-03-19T02:28:11;52802.25;;;-146.10;97.93
12763;BME280;6445;52.490;13.378;2023-03-19T02:30:41;52904.28;;;-146.10;98.45
12763;BME280;6445;52.490;13.378;2023-03-19T02:33:12;53192.44;;;-146.10;99.98
12763;BME280;6445;52.490;13.378;2023-03-19T02:35:37;53404.56;;;-146.10;100.00
12763;BME280;6445;52.490;13.378;2023-03-19T02:38:04;52696.19;;;-146.10;96.94
12763;BME280;6445;52.490;13.378;2023-03-19T02:40:33;52764.22;;;-146.10;96.68
12763;BME280;6445;52.490;13.378;2023-03-19T02:42:59;52844.25;;;-146.10;97.40
12763;BME280;6445;52.490;13.378;2023-03-19T02:45:29;52626.16;;;-146.10;95.71
12763;BME280;6445;52.490;13.378;2023-03-19T02:47:55;52410.09;;;-146.10;93.53
12763;BME280;6445;52.490;13.378;2023-03-19T02:50:20;52346.06;;;-146.10;92.42
12763;BME280;6445;52.490;13.378;2023-03-19T02:52:46;52426.09;;;-146.10;93.47
12763;BME280;6445;52.490;13.378;2023-03-19T02:55:11;52352.06;;;-146.10;92.03
12763;BME280;6445;52.490;13.378;2023-03-19T02:57:36;52432.09;;;-146.10;93.37
12763;BME280;6445;52.490;13.378;2023-03-19T03:00:03;52644.19;;;-146.10;95.03
12763;BME280;6445;52.490;13.378;2023-03-19T03:02:29;52682.19;;;-146.10;96.22
12763;BME280;6445;52.490;13.378;2023-03-19T03:04:54;52668.19;;;-146.10;95.59
12763;BME280;6445;52.490;13.378;2023-03-19T03:07:20;52716.22;;;-146.10;95.83
12763;BME280;6445;52.490;13.378;2023-03-19T03:09:46;52470.13;;;-146.10;92.86
12763;BME280;6445;52.490;13.378;2023-03-19T03:12:11;52542.13;;;-146.10;94.17
12763;BME280;6445;52.490;13.378;2023-03-19T03:14:36;52488.13;;;-146.10;93.84
12763;BME280;6445;52.490;13.378;2023-03-19T03:17:02;52302.06;;;-146.10;90.29
12763;BME280;6445;52.490;13.378;2023-03-19T03:19:27;52290.06;;;-146.10;90.13
12763;BME280;6445;52.490;13.378;2023-03-19T03:21:52;52412.09;;;-146.10;92.33
12763;BME280;6445;52.490;13.378;2023-03-19T03:24:18;52410.09;;;-146.10;92.33
12763;BME280;6445;52.490;13.378;2023-03-19T03:26:43;52232.03;;;-146.10;89.15
12763;BME280;6445;52.490;13.378;2023-03-19T03:29:09;52162.00;;;-146.10;87.18
12763;BME280;6445;52.490;13.378;2023-03-19T03:31:34;52210.03;;;-146.10;88.30
12763;BME280;6445;52.490;13.378;2023-03-19T03:34:00;52236.03;;;-146.10;88.44
12763;BME280;6445;52.490;13.378;2023-03-19T03:36:25;52198.03;;;-146.10;87.40
12763;BME280;6445;52.490;13.378;2023-03-19T03:38:51;52164.00;;;-146.10;86.84
12763;BME280;6445;52.490;13.378;2023-03-19T03:41:17;52194.03;;;-146.10;87.98
12763;BME280;6445;52.490;13.378;2023-03-19T03:43:42;52292.06;;;-146.10;88.77
12763;BME280;6445;52.490;13.378;2023-03-19T03:46:07;52296.06;;;-146.10;89.01
12763;BME280;6445;52.490;13.378;2023-03-19T03:48:34;52372.06;;;-146.10;90.61
12763;BME280;6445;52.490;13.378;2023-03-19T03:51:00;52334.06;;;-146.10;90.53
12763;BME280;6445;52.490;13.378;2023-03-19T03:53:25;52360.06;;;-146.10;90.86
12763;BME280;6445;52.490;13.378;2023-03-19T03:55:51;52538.13;;;-146.10;93.20
12763;BME280;6445;52.490;13.378;2023-03-19T03:58:16;52482.13;;;-146.10;91.50
12763;BME280;6445;52.490;13.378;2023-03-19T04:00:41;52504.13;;;-146.10;92.66
12763;BME280;6445;52.490;13.378;2023-03-19T04:03:06;52624.16;;;-146.10;94.58
12763;BME280;6445;52.490;13.378;2023-03-19T04:05:32;53342.53;;;-146.10;98.89
12763;BME280;6445;52.490;13.378;2023-03-19T04:07:57;53212.44;;;-146.10;97.75
12763;BME280;6445;52.490;13.378;2023-03-19T04:10:23;53554.66;;;-146.10;99.77
12763;BME280;6445;52.490;13.378;2023-03-19T04:12:49;52984.34;;;-146.10;96.18
12763;BME280;6445;52.490;13.378;2023-03-19T04:15:14;52994.34;;;-146.10;96.23
12763;BME280;6445;52.490;13.378;2023-03-19T04:17:40;52998.34;;;-146.10;96.75
12763;BME280;6445;52.490;13.378;2023-03-19T04:20:06;52868.28;;;-146.10;94.93
12763;BME280;6445;52.490;13.378;2023-03-19T04:22:32;53282.50;;;-146.10;98.21
12763;BME280;6445;52.490;13.378;2023-03-19T04:24:57;53542.66;;;-146.10;99.39
12763;BME280;6445;52.490;13.378;2023-03-19T04:27:22;53640.72;;;-146.10;99.64
12763;BME280;6445;52.490;13.378;2023-03-19T04:29:48;53026.34;;;-146.10;96.30
12763;BME280;6445;52.490;13.378;2023-03-19T04:32:13;52972.31;;;-146.10;95.75
12763;BME280;6445;52.490;13.378;2023-03-19T04:34:39;52980.34;;;-146.10;95.97
12763;BME280;6445;52.490;13.378;2023-03-19T04:37:05;53060.38;;;-146.10;96.42
12763;BME280;6445;52.490;13.378;2023-03-19T04:39:31;52744.22;;;-146.10;94.32
12763;BME280;6445;52.490;13.378;2023-03-19T04:41:57;52708.22;;;-146.10;94.30
12763;BME280;6445;52.490;13.378;2023-03-19T04:44:22;52806.25;;;-146.10;94.80
12763;BME280;6445;52.490;13.378;2023-03-19T04:46:48;52936.31;;;-146.10;95.29
12763;BME280;6445;52.490;13.378;2023-03-19T04:49:13;52838.25;;;-146.10;94.86
12763;BME280;6445;52.490;13.378;2023-03-19T04:51:38;53020.34;;;-146.10;96.07
12763;BME280;6445;52.490;13.378;2023-03-19T04:54:04;53898.88;;;-146.10;100.00
12763;BME280;6445;52.490;13.378;2023-03-19T04:56:30;58276.50;;;-146.10;100.00
12763;BME280;6445;52.490;13.378;2023-03-19T04:58:55;63351.00;;;-146.10;100.00
12763;BME280;6445;52.490;13.378;2023-03-19T05:01:21;70294.56;;;-146.10;100.00
12763;BME280;6445;52.490;13.378;2023-03-19T05:03:46;77421.38;;;-146.10;100.00
12763;BME280;6445;52.490;13.378;2023-03-19T05:06:12;80464.63;;;-146.10;100.00
12763;BME280;6445;52.490;13.378;2023-03-19T05:08:37;78780.56;;;-146.10;100.00
12763;BME280;6445;52.490;13.378;2023-03-19T05:11:03;56509.66;;;-146.10;100.00
12763;BME280;6445;52.490;13.378;2023-03-19T05:13:28;13978.97;;;-146.10;100.00
12763;BME280;6445;52.490;13.378;2023-03-19T05:15:54;4698.34;;;-146.10;100.00
12763;BME280;6445;52.490;13.378;2023-03-19T05:18:20;-6639.59;;;-146.10;100.00
12763;BME280;6445;52.490;13.378;2023-03-19T05:20:45;-11938.88;;;-146.10;100.00
12763;BME280;6445;52.490;13.378;2023-03-19T05:23:11;-12695.97;;;-146.10;100.00
12763;BME280;6445;52.490;13.378;2023-03-19T05:25:38;-12695.97;;;-146.10;100.00
12763;BME280;6445;52.490;13.378;2023-03-19T05:28:03;-12695.97;;;-146.10;100.00
12763;BME280;6445;52.490;13.378;2023-03-19T05:30:29;-12695.97;;;-146.10;100.00
12763;BME280;6445;52.490;13.378;2023-03-19T05:32:56;-12695.97;;;-146.10;100.00
12763;BME280;6445;52.490;13.378;2023-03-19T05:35:22;-12695.97;;;-146.10;100.00
12763;BME280;6445;52.490;13.378;2023-03-19T05:37:47;-12695.97;;;-146.10;100.00
12763;BME280;6445;52.490;13.378;2023-03-19T05:40:13;-12695.97;;;-146.10;100.00
12763;BME280;6445;52.490;13.378;2023-03-19T05:42:38;-12695.97;;;-146.10;100.00
12763;BME280;6445;52.490;13.378;2023-03-19T05:45:04;-12695.97;;;-146.10;100.00
12763;BME280;6445;52.490;13.378;2023-03-19T05:47:30;-12695.97;;;-146.10;100.00
12763;BME280;6445;52.490;13.378;2023-03-19T05:49:56;-12695.97;;;-146.10;100.00
12763;BME280;6445;52.490;13.378;2023-03-19T05:52:21;-12695.97;;;-146.10;100.00
12763;BME280;6445;52.490;13.378;2023-03-19T05:54:46;-12695.97;;;-146.10;100.00
12763;BME280;6445;52.490;13.378;2023-03-19T05:57:14;-12695.97;;;-146.10;100.00
12763;BME280;6445;52.490;13.378;2023-03-19T05:59:39;-12695.97;;;-146.10;100.00
12763;BME280;6445;52.490;13.378;2023-03-19T06:02:05;-12695.97;;;-146.10;100.00
12763;BME280;6445;52.490;13.378;2023-03-19T06:04:31;-12695.97;;;-146.10;100.00
12763;BME280;6445;52.490;13.378;2023-03-19T06:06:56;-12695.97;;;-146.10;100.00
12763;BME280;6445;52.490;13.378;2023-03-19T06:09:22;-12695.97;;;-146.10;100.00
12763;BME280;6445;52.490;13.378;2023-03-19T06:11:47;-12695.97;;;-146.10;100.00
12763;BME280;6445;52.490;13.378;2023-03-19T06:14:13;-12695.97;;;-146.10;100.00
12763;BME280;6445;52.490;13.378;2023-03-19T06:16:38;-12695.97;;;-146.10;100.00
12763;BME280;6445;52.490;13.378;2023-03-19T06:19:03;-12695.97;;;-146.10;100.00
12763;BME280;6445;52.490;13.378;2023-03-19T06:21:28;-12695.97;;;-146.10;100.00
12763;BME280;6445;52.490;13.378;2023-03-19T06:23:55;-12695.97;;;-146.10;100.00
12763;BME280;6445;52.490;13.378;2023-03-19T06:26:21;-10931.19;;;-146.10;100.00
12763;BME280;6445;52.490;13.378;2023-03-19T06:28:46;-6141.00;;;-146.10;100.00
12763;BME280;6445;52.490;13.378;2023-03-19T06:31:11;-8410.78;;;-146.10;100.00
12763;BME280;6445;52.490;13.378;2023-03-19T06:33:37;-8915.00;;;-146.10;100.00
12763;BME280;6445;52.490;13.378;2023-03-19T06:36:02;-10175.25;;;-146.10;100.00
12763;BME280;6445;52.490;13.378;2023-03-19T06:38:27;-10427.25;;;-146.10;100.00
12763;BME280;6445;52.490;13.378;2023-03-19T06:40:53;-9167.06;;;-146.10;100.00
12763;BME280;6445;52.490;13.378;2023-03-19T06:43:18;-6393.25;;;-146.10;100.00
12763;BME280;6445;52.490;13.378;2023-03-19T06:45:44;-6897.75;;;-146.10;100.00
12763;BME280;6445;52.490;13.378;2023-03-19T06:48:09;-5636.41;;;-146.10;100.00
12763;BME280;6445;52.490;13.378;2023-03-19T06:50:34;-4374.69;;;-146.10;100.00
12763;BME280;6445;52.490;13.378;2023-03-19T06:52:59;-5636.41;;;-146.10;100.00
12763;BME280;6445;52.490;13.378;2023-03-19T06:55:26;-7654.34;;;-146.10;100.00
12763;BME280;6445;52.490;13.378;2023-03-19T06:57:51;-7654.34;;;-146.10;100.00
12763;BME280;6445;52.490;13.378;2023-03-19T07:00:17;-7149.94;;;-146.10;100.00
12763;BME280;6445;52.490;13.378;2023-03-19T07:02:43;-8662.91;;;-146.10;100.00
12763;BME280;6445;52.490;13.378;2023-03-19T07:05:09;-6897.75;;;-146.10;100.00
12763;BME280;6445;52.490;13.378;2023-03-19T07:07:34;-6645.50;;;-146.10;100.00
12763;BME280;6445;52.490;13.378;2023-03-19T07:10:00;-7402.16;;;-146.10;100.00
12763;BME280;6445;52.490;13.378;2023-03-19T07:12:26;-6897.75;;;-146.10;100.00
12763;BME280;6445;52.490;13.378;2023-03-19T07:14:52;-7149.94;;;-146.10;100.00
12763;BME280;6445;52.490;13.378;2023-03-19T07:17:18;-8158.66;;;-146.10;100.00
12763;BME280;6445;52.490;13.378;2023-03-19T07:19:43;-7654.34;;;-146.10;100.00
12763;BME280;6445;52.490;13.378;2023-03-19T07:22:08;-7906.50;;;-146.10;100.00
12763;BME280;6445;52.490;13.378;2023-03-19T07:24:34;-8662.91;;;-146.10;100.00
12763;BME280;6445;52.490;13.378;2023-03-19T07:26:59;-9923.22;;;-146.10;100.00
12763;BME280;6445;52.490;13.378;2023-03-19T07:29:24;-11687.00;;;-146.10;100.00
12763;BME280;6445;52.490;13.378;2023-03-19T07:31:50;-12442.63;;;-146.10;100.00
12763;BME280;6445;52.490;13.378;2023-03-19T07:34:15;-12695.97;;;-146.10;100.00
12763;BME280;6445;52.490;13.378;2023-03-19T07:36:40;-12695.97;;;-146.10;100.00
12763;BME280;6445;52.490;13.378;2023-03-19T07:39:06;-12695.97;;;-146.10;100.00
12763;BME280;6445;52.490;13.378;2023-03-19T07:41:31;-12695.97;;;-146.10;100.00
12763;BME280;6445;52.490;13.378;2023-03-19T07:43:56;-12694.50;;;-146.10;100.00
12763;BME280;6445;52.490;13.378;2023-03-19T07:46:21;-9923.22;;;-146.10;100.00
12763;BME280;6445;52.490;13.378;2023-03-19T07:48:47;929.16;;;-146.10;100.00
12763;BME280;6445;52.490;13.378;2023-03-19T07:51:12;25103.34;;;-146.10;100.00
12763;BME280;6445;52.490;13.378;2023-03-19T07:53:37;41343.72;;;-146.10;99.68
12763;BME280;6445;52.490;13.378;2023-03-19T07:56:03;43423.16;;;-146.10;100.00
12763;BME280;6445;52.490;13.378;2023-03-19T07:58:28;44942.53;;;-146.10;100.00
12763;BME280;6445;52.490;13.378;2023-03-19T08:00:53;43491.03;;;-146.10;100.00
12763;BME280;6445;52.490;13.378;2023-03-19T08:03:19;39825.75;;;-146.10;100.00
12763;BME280;6445;52.490;13.378;2023-03-19T08:05:47;39572.47;;;-146.10;100.00
12763;BME280;6445;52.490;13.378;2023-03-19T08:08:13;34064.34;;;-146.10;100.00
12763;BME280;6445;52.490;13.378;2023-03-19T08:10:39;32141.13;;;-146.10;100.00
12763;BME280;6445;52.490;13.378;2023-03-19T08:13:04;37433.28;;;-146.10;100.00
12763;BME280;6445;52.490;13.378;2023-03-19T08:15:29;19169.16;;;-146.10;100.00
12763;BME280;6445;52.490;13.378;2023-03-19T08:17:59;40579.66;;;-146.10;100.00
12763;BME280;6445;52.490;13.378;2023-03-19T08:20:25;45068.34;;;-146.10;100.00
12763;BME280;6445;52.490;13.378;2023-03-19T08:22:50;47225.66;;;-146.10;100.00
12763;BME280;6445;52.490;13.378;2023-03-19T08:25:16;48792.47;;;-146.10;100.00
12763;BME280;6445;52.490;13.378;2023-03-19T08:27:41;49170.28;;;-146.10;100.00
12763;BME280;6445;52.490;13.378;2023-03-19T08:30:08;48032.97;;;-146.10;100.00
12763;BME280;6445;52.490;13.378;2023-03-19T08:32:35;37688.41;;;-146.10;100.00
12763;BME280;6445;52.490;13.378;2023-03-19T08:35:01;27476.34;;;-146.10;100.00
12763;BME280;6445;52.490;13.378;2023-03-19T08:37:27;18823.97;;;-146.10;100.00
12763;BME280;6445;52.490;13.378;2023-03-19T08:39:52;7848.09;;;-146.10;100.00
12763;BME280;6445;52.490;13.378;2023-03-19T08:42:18;-6087.78;;;-146.10;100.00
12763;BME280;6445;52.490;13.378;2023-03-19T08:44:44;-12695.97;;;-146.10;100.00
12763;BME280;6445;52.490;13.378;2023-03-19T08:47:09;-12695.97;;;-146.10;100.00
12763;BME280;6445;52.490;13.378;2023-03-19T08:49:35;-12695.97;;;-146.10;100.00
12763;BME280;6445;52.490;13.378;2023-03-19T08:52:00;-12695.97;;;-146.10;100.00
12763;BME280;6445;52.490;13.378;2023-03-19T08:54:25;-12695.97;;;-146.10;100.00
12763;BME280;6445;52.490;13.378;2023-03-19T08:56:51;-12695.97;;;-146.10;100.00
12763;BME280;6445;52.490;13.378;2023-03-19T08:59:16;-12695.97;;;-146.10;100.00
12763;BME280;6445;52.490;13.378;2023-03-19T09:01:41;-12695.97;;;-146.10;100.00
12763;BME280;6445;52.490;13.378;2023-03-19T09:04:08;-12695.97;;;-146.10;100.00
12763;BME280;6445;52.490;13.378;2023-03-19T09:06:33;-12695.97;;;-146.10;100.00
12763;BME280;6445;52.490;13.378;2023-03-19T09:08:58;-12695.97;;;-146.10;100.00
12763;BME280;6445;52.490;13.378;2023-03-19T09:11:23;-12695.97;;;-146.10;100.00
12763;BME280;6445;52.490;13.378;2023-03-19T09:13:49;-12695.97;;;-146.10;100.00
12763;BME280;6445;52.490;13.378;2023-03-19T09:16:14;-12695.97;;;-146.10;100.00
12763;BME280;6445;52.490;13.378;2023-03-19T09:18:40;-12695.97;;;-146.10;100.00
12763;BME280;6445;52.490;13.378;2023-03-19T09:21:05;-12695.97;;;-146.10;100.00
12763;BME280;6445;52.490;13.378;2023-03-19T09:23:30;-12695.97;;;-146.10;100.00
12763;BME280;6445;52.490;13.378;2023-03-19T09:25:55;-12695.97;;;-146.10;100.00
12763;BME280;6445;52.490;13.378;2023-03-19T09:28:21;-12695.97;;;-146.10;100.00
12763;BME280;6445;52.490;13.378;2023-03-19T09:30:47;-12695.97;;;-146.10;100.00
12763;BME280;6445;52.490;13.378;2023-03-19T09:33:14;-12695.97;;;-146.10;100.00
12763;BME280;6445;52.490;13.378;2023-03-19T09:35:40;-12695.97;;;-146.10;100.00
12763;BME280;6445;52.490;13.378;2023-03-19T09:38:06;-12695.97;;;-146.10;100.00
12763;BME280;6445;52.490;13.378;2023-03-19T09:40:40;-12695.97;;;-146.10;100.00
12763;BME280;6445;52.490;13.378;2023-03-19T09:46:21;-12695.97;;;-146.10;100.00
12763;BME280;6445;52.490;13.378;2023-03-19T09:48:56;-12695.97;;;-146.10;100.00
12763;BME280;6445;52.490;13.378;2023-03-19T09:51:29;-12695.97;;;-146.10;100.00
12763;BME280;6445;52.490;13.378;2023-03-19T09:54:01;-12695.97;;;-146.10;100.00
12763;BME280;6445;52.490;13.378;2023-03-19T09:56:30;-12695.97;;;-146.10;100.00
12763;BME280;6445;52.490;13.378;2023-03-19T09:58:56;-12695.97;;;-146.10;100.00
12763;BME280;6445;52.490;13.378;2023-03-19T10:01:29;-12695.97;;;-146.10;100.00
12763;BME280;6445;52.490;13.378;2023-03-19T10:04:19;-12695.97;;;-146.10;100.00
12763;BME280;6445;52.490;13.378;2023-03-19T10:06:53;-12695.97;;;-146.10;100.00
12763;BME280;6445;52.490;13.378;2023-03-19T10:12:14;-12695.97;;;-146.10;100.00
12763;BME280;6445;52.490;13.378;2023-03-19T10:17:25;-12695.97;;;-146.10;100.00
12763;BME280;6445;52.490;13.378;2023-03-19T10:19:57;-12695.97;;;-146.10;100.00
12763;BME280;6445;52.490;13.378;2023-03-19T10:22:30;-12695.97;;;-146.10;100.00
12763;BME280;6445;52.490;13.378;2023-03-19T10:25:00;-12695.97;;;-146.10;100.00
12763;BME280;6445;52.490;13.378;2023-03-19T10:27:27;-12695.97;;;-146.10;100.00
12763;BME280;6445;52.490;13.378;2023-03-19T10:29:54;-12695.97;;;-146.10;100.00
12763;BME280;6445;52.490;13.378;2023-03-19T10:32:27;-12695.97;;;-146.10;100.00
12763;BME280;6445;52.490;13.378;2023-03-19T10:34:55;-12695.97;;;-146.10;100.00
12763;BME280;6445;52.490;13.378;2023-03-19T10:37:26;-12695.97;;;-146.10;100.00
12763;BME280;6445;52.490;13.378;2023-03-19T10:39:56;-12695.97;;;-146.10;100.00
12763;BME280;6445;52.490;13.378;2023-03-19T10:42:49;-12694.50;;;-146.10;100.00
12763;BME280;6445;52.490;13.378;2023-03-19T10:45:38;-12442.63;;;-146.10;100.00
12763;BME280;6445;52.490;13.378;2023-03-19T10:48:04;-9671.19;;;-146.10;100.00
12763;BME280;6445;52.490;13.378;2023-03-19T10:50:44;-8410.78;;;-146.10;100.00
12763;BME280;6445;52.490;13.378;2023-03-19T10:55:43;-81.66;;;-146.10;100.00
12763;BME280;6445;52.490;13.378;2023-03-19T10:58:33;-3869.88;;;-146.10;100.00
12763;BME280;6445;52.490;13.378;2023-03-19T11:01:16;2445.88;;;-146.10;100.00
12763;BME280;6445;52.490;13.378;2023-03-19T11:06:20;39494.69;;;-146.10;100.00
12763;BME280;6445;52.490;13.378;2023-03-19T11:08:58;47009.88;;;-146.10;98.01
12763;BME280;6445;52.490;13.378;2023-03-19T11:11:48;51081.84;;;-146.10;87.40
12763;BME280;6445;52.490;13.378;2023-03-19T11:14:25;51863.94;;;-146.10;81.09
12763;BME280;6445;52.490;13.378;2023-03-19T11:17:01;52120.00;;;-146.10;83.32
12763;BME280;6445;52.490;13.378;2023-03-19T11:19:29;53806.81;;;-146.10;100.00
12763;BME280;6445;52.490;13.378;2023-03-19T11:24:35;53888.88;;;-146.10;95.98
12763;BME280;6445;52.490;13.378;2023-03-19T11:27:02;54987.84;;;-146.10;97.95
12763;BME280;6445;52.490;13.378;2023-03-19T11:29:28;57967.94;;;-146.10;100.00
12763;BME280;6445;52.490;13.378;2023-03-19T11:32:11;59144.16;;;-146.10;100.00
12763;BME280;6445;52.490;13.378;2023-03-19T11:34:55;60316.75;;;-146.10;100.00
12763;BME280;6445;52.490;13.378;2023-03-19T11:37:40;60130.31;;;-146.10;100.00
12763;BME280;6445;52.490;13.378;2023-03-19T11:40:20;60080.19;;;-146.10;100.00
12763;BME280;6445;52.490;13.378;2023-03-19T11:45:38;62492.44;;;-146.10;100.00
12763;BME280;6445;52.490;13.378;2023-03-19T11:48:25;63415.19;;;-146.10;100.00
12763;BME280;6445;52.490;13.378;2023-03-19T11:50:59;65562.47;;;-146.10;100.00
12763;BME280;6445;52.490;13.378;2023-03-19T11:53:34;67829.41;;;-146.10;100.00
12763;BME280;6445;52.490;13.378;2023-03-19T11:56:25;69930.84;;;-146.10;100.00
12763;BME280;6445;52.490;13.378;2023-03-19T11:59:09;63288.81;;;-146.10;100.00
12763;BME280;6445;52.490;13.378;2023-03-19T12:04:57;67397.59;;;-146.10;100.00
12763;BME280;6445;52.490;13.378;2023-03-19T12:16:38;67618.53;;;-146.10;100.00
12763;BME280;6445;52.490;13.378;2023-03-19T12:19:26;68271.28;;;-146.10;100.00
12763;BME280;6445;52.490;13.378;2023-03-19T12:30:07;64532.84;;;-146.10;100.00
12763;BME280;6445;52.490;13.378;2023-03-19T12:32:51;63682.03;;;-146.10;100.00
12763;BME280;6445;52.490;13.378;2023-03-19T12:35:29;63517.53;;;-146.10;99.24
12763;BME280;6445;52.490;13.378;2023-03-19T12:38:04;60978.34;;;-146.10;96.18
12763;BME280;6445;52.490;13.378;2023-03-19T12:40:46;60098.25;;;-146.10;95.10
12763;BME280;6445;52.490;13.378;2023-03-19T12:43:31;59506.94;;;-146.10;94.04
12763;BME280;6445;52.490;13.378;2023-03-19T12:46:06;58975.81;;;-146.10;93.06
12763;BME280;6445;52.490;13.378;2023-03-19T12:48:50;58775.44;;;-146.10;92.48
12763;BME280;6445;52.490;13.378;2023-03-19T12:51:21;60032.09;;;-146.10;94.29
12763;BME280;6445;52.490;13.378;2023-03-19T12:54:04;60260.63;;;-146.10;94.02
12763;BME280;6445;52.490;13.378;2023-03-19T12:56:42;56984.34;;;-146.10;89.12
12763;BME280;6445;52.490;13.378;2023-03-19T12:59:39;57128.56;;;-146.10;87.88
12763;BME280;6445;52.490;13.378;2023-03-19T13:02:17;54149.09;;;-146.10;80.51
12763;BME280;6445;52.490;13.378;2023-03-19T13:05:10;55642.53;;;-146.10;86.01
12763;BME280;6445;52.490;13.378;2023-03-19T13:10:29;55982.94;;;-146.10;86.31
12763;BME280;6445;52.490;13.378;2023-03-19T13:12:56;55278.13;;;-146.10;84.25
12763;BME280;6445;52.490;13.378;2023-03-19T13:15:36;54447.31;;;-146.10;81.16
12763;BME280;6445;52.490;13.378;2023-03-19T13:18:36;53872.88;;;-146.10;78.97
12763;BME280;6445;52.490;13.378;2023-03-19T13:21:10;53496.63;;;-146.10;76.14